Time;durP1;ratioP1;P1;durP2;ratioP2;P2;SDS_P1;SDS_P2;PMS_P1;PMS_P2;Temp;Humidity;BMP_temperature;BMP_pressure;BME280_temperature;BME280_humidity;BME280_pressure;Samples;Min_cycle;Max_cycle;Signal;HPM_P1;HPM_P2
2022/01/28 00:04:50;;;;;;;4.87;1.83;;;3.00;99.90;;;;;;6217433;23;20067;-84
2022/01/28 00:07:16;;;;;;;5.67;2.23;;;3.00;99.90;;;;;;6240116;23;20012;-84
2022/01/28 00:09:41;;;;;;;5.40;2.40;;;2.90;99.90;;;;;;6240668;23;20001;-84
2022/01/28 00:12:08;;;;;;;5.83;2.43;;;3.00;99.90;;;;;;6245145;23;20011;-84
2022/01/28 00:17:48;;;;;;;6.07;2.47;;;2.90;99.90;;;;;;6246467;23;20105;-84
2022/01/28 00:36:59;;;;;;;5.63;2.43;;;3.00;99.90;;;;;;6246756;23;20011;-84
2022/01/28 00:39:24;;;;;;;5.17;2.10;;;3.00;99.90;;;;;;6243384;23;20030;-83
2022/01/28 00:41:51;;;;;;;4.87;1.83;;;3.00;99.90;;;;;;6243651;23;20012;-84
2022/01/28 00:44:17;;;;;;;6.80;2.27;;;2.90;99.90;;;;;;6243785;23;20399;-84
2022/01/28 00:46:43;;;;;;;5.23;2.10;;;2.90;99.90;;;;;;6244086;23;20012;-84
2022/01/28 00:49:08;;;;;;;6.30;2.60;;;2.90;99.90;;;;;;6244736;23;20000;-83
2022/01/28 00:51:34;;;;;;;3.80;1.47;;;2.90;99.90;;;;;;6243258;23;20609;-84
2022/01/28 00:53:59;;;;;;;6.23;1.93;;;2.90;99.90;;;;;;6243241;23;20004;-84
2022/01/28 00:56:25;;;;;;;4.70;1.97;;;2.90;99.90;;;;;;6243027;23;20000;-84
2022/01/28 00:58:51;;;;;;;4.50;1.87;;;3.00;99.90;;;;;;6243751;23;20000;-83
2022/01/28 01:01:16;;;;;;;7.33;2.27;;;2.90;99.90;;;;;;6217523;23;20015;-84
2022/01/28 01:03:42;;;;;;;5.83;1.60;;;2.90;99.90;;;;;;6244544;23;19997;-84
2022/01/28 01:06:08;;;;;;;6.40;2.13;;;3.00;99.90;;;;;;6242257;23;20035;-84
2022/01/28 01:08:33;;;;;;;5.00;1.80;;;3.00;99.90;;;;;;6213312;23;20008;-84
2022/01/28 01:10:59;;;;;;;6.40;2.03;;;3.00;99.90;;;;;;6236844;23;20483;-83
2022/01/28 01:13:25;;;;;;;7.37;2.70;;;3.00;99.90;;;;;;6231960;23;20447;-84
2022/01/28 01:15:56;;;;;;;4.80;2.00;;;3.00;99.90;;;;;;6237305;23;20391;-84
2022/01/28 01:18:28;;;;;;;4.90;1.60;;;2.90;99.90;;;;;;6237508;23;20055;-84
2022/01/28 01:21:03;;;;;;;5.53;2.45;;;2.90;99.90;;;;;;6237534;23;20682;-83
2022/01/28 01:23:33;;;;;;;3.50;1.53;;;2.90;99.90;;;;;;6239112;23;20005;-84
2022/01/28 01:26:08;;;;;;;4.47;2.00;;;2.90;99.90;;;;;;6217112;23;20431;-84
2022/01/28 01:28:37;;;;;;;4.80;1.70;;;2.90;99.90;;;;;;6237229;23;20012;-83
2022/01/28 01:31:05;;;;;;;4.93;1.60;;;2.90;99.90;;;;;;6213807;23;20081;-84
2022/01/28 01:33:37;;;;;;;4.47;1.60;;;2.80;99.90;;;;;;6214875;23;20055;-83
2022/01/28 01:36:03;;;;;;;5.23;2.10;;;2.80;99.90;;;;;;6238574;23;19997;-84
2022/01/28 01:38:33;;;;;;;4.63;1.80;;;2.80;99.90;;;;;;6237744;23;20080;-84
2022/01/28 01:41:02;;;;;;;4.23;1.90;;;2.70;99.90;;;;;;6214573;23;20000;-84
2022/01/28 01:43:46;;;;;;;5.10;1.87;;;2.70;99.90;;;;;;6238439;23;20004;-84
2022/01/28 01:54:06;;;;;;;4.60;2.23;;;2.60;99.90;;;;;;6214364;23;20526;-83
2022/01/28 01:56:33;;;;;;;6.23;2.13;;;2.50;99.90;;;;;;6213456;23;20004;-84
2022/01/28 01:59:00;;;;;;;4.97;2.00;;;2.50;99.90;;;;;;6237625;23;20015;-84
2022/01/28 02:01:26;;;;;;;3.80;1.87;;;2.50;99.90;;;;;;6213891;23;20012;-84
2022/01/28 02:03:52;;;;;;;6.50;2.00;;;2.40;99.90;;;;;;6237890;23;20061;-84
2022/01/28 02:06:19;;;;;;;3.53;1.80;;;2.40;99.90;;;;;;6238082;23;20020;-84
2022/01/28 02:08:46;;;;;;;5.93;2.50;;;2.40;99.90;;;;;;6213694;23;20071;-84
2022/01/28 02:11:12;;;;;;;5.80;2.23;;;2.40;99.90;;;;;;6227543;22;20020;-91
2022/01/28 02:13:39;;;;;;;6.00;2.17;;;2.40;99.90;;;;;;6252199;23;20000;-90
2022/01/28 02:16:21;;;;;;;4.20;1.67;;;2.40;99.90;;;;;;6251217;23;20004;-91
2022/01/28 02:19:15;;;;;;;5.00;2.00;;;2.40;99.90;;;;;;6252397;23;20070;-91
2022/01/28 02:21:48;;;;;;;4.07;1.50;;;2.40;99.90;;;;;;6222509;23;20013;-91
2022/01/28 02:24:34;;;;;;;4.43;1.70;;;2.30;99.90;;;;;;6225816;23;20000;-90
2022/01/28 02:27:15;;;;;;;5.13;1.90;;;2.30;99.90;;;;;;6226378;23;20008;-90
2022/01/28 02:29:43;;;;;;;3.50;1.57;;;2.30;99.90;;;;;;6226765;23;20101;-91
2022/01/28 02:32:14;;;;;;;4.53;1.80;;;2.30;99.90;;;;;;6225055;22;20039;-91
2022/01/28 02:34:43;;;;;;;4.53;1.90;;;2.20;99.90;;;;;;6251970;23;20000;-90
2022/01/28 02:37:09;;;;;;;5.67;1.93;;;2.10;99.90;;;;;;6250816;23;20009;-91
2022/01/28 02:39:35;;;;;;;5.60;1.63;;;2.20;99.90;;;;;;6224510;23;20080;-91
2022/01/28 02:42:51;;;;;;;4.67;1.93;;;2.10;99.90;;;;;;6252353;22;20016;-90
2022/01/28 02:45:01;;;;;;;6.07;2.17;;;2.20;99.90;;;;;;6228882;23;20004;-90
2022/01/28 02:47:34;;;;;;;3.97;1.60;;;2.00;99.90;;;;;;6229291;23;20015;-90
2022/01/28 02:50:06;;;;;;;3.63;1.43;;;2.10;99.90;;;;;;6253946;23;20008;-90
2022/01/28 02:52:38;;;;;;;5.20;2.30;;;2.00;99.90;;;;;;6230282;23;20013;-90
2022/01/28 02:55:10;;;;;;;4.55;1.77;;;2.00;99.90;;;;;;6258952;23;20012;-89
2022/01/28 02:57:39;;;;;;;5.30;1.80;;;1.90;99.90;;;;;;6257652;22;19997;-90
2022/01/28 03:00:08;;;;;;;4.77;1.70;;;1.90;99.90;;;;;;6229269;23;20001;-89
2022/01/28 03:02:34;;;;;;;4.77;1.83;;;1.90;99.90;;;;;;6251615;23;20004;-89
2022/01/28 03:05:26;;;;;;;4.30;2.00;;;1.90;99.90;;;;;;6253229;23;20005;-90
2022/01/28 03:07:50;;;;;;;5.90;1.93;;;1.90;99.90;;;;;;6233327;22;20032;-90
2022/01/28 03:10:29;;;;;;;5.47;1.57;;;1.90;99.90;;;;;;6251408;23;20008;-89
2022/01/28 03:13:20;;;;;;;5.07;2.00;;;1.80;99.90;;;;;;6251502;22;20009;-89
2022/01/28 03:15:52;;;;;;;8.33;2.77;;;1.80;99.90;;;;;;6252238;22;20070;-89
2022/01/28 03:18:24;;;;;;;19.73;5.38;;;1.90;99.90;;;;;;6253254;23;19996;-90
2022/01/28 03:23:24;;;;;;;8.07;2.93;;;2.00;99.90;;;;;;6226578;23;20036;-90
2022/01/28 03:25:50;;;;;;;5.30;1.73;;;1.90;99.90;;;;;;6248307;22;20001;-90
2022/01/28 03:28:20;;;;;;;12.83;4.23;;;1.80;99.90;;;;;;6244799;23;20315;-90
2022/01/28 03:30:46;;;;;;;11.87;3.97;;;1.90;99.90;;;;;;6242311;22;20019;-90
2022/01/28 03:33:12;;;;;;;4.40;1.73;;;1.90;99.90;;;;;;6194201;23;20009;-90
2022/01/28 03:35:40;;;;;;;6.33;2.50;;;1.90;99.90;;;;;;6223969;23;19996;-89
2022/01/28 03:38:11;;;;;;;5.80;2.60;;;1.80;99.90;;;;;;6226111;23;20040;-90
2022/01/28 03:40:37;;;;;;;6.17;1.97;;;1.90;99.90;;;;;;6224218;23;20000;-90
2022/01/28 03:43:07;;;;;;;4.60;2.00;;;2.00;99.90;;;;;;6225318;23;20047;-90
2022/01/28 03:45:33;;;;;;;25.50;5.50;;;1.90;99.90;;;;;;6225214;23;20033;-90
2022/01/28 03:48:02;;;;;;;11.90;4.80;;;2.00;99.90;;;;;;6199670;23;20012;-89
2022/01/28 03:50:32;;;;;;;8.90;3.50;;;2.00;99.90;;;;;;6225589;23;20005;-90
2022/01/28 03:52:59;;;;;;;5.43;2.00;;;2.00;99.90;;;;;;6224163;23;20131;-90
2022/01/28 03:55:24;;;;;;;5.37;1.57;;;2.10;99.90;;;;;;6226051;23;20005;-90
2022/01/28 03:57:58;;;;;;;4.83;2.10;;;2.10;99.90;;;;;;6229925;23;20005;-90
2022/01/28 04:00:33;;;;;;;4.10;1.73;;;2.10;99.90;;;;;;6234163;23;20004;-90
2022/01/28 04:03:23;;;;;;;4.57;1.70;;;2.10;99.90;;;;;;6214448;23;19985;-90
2022/01/28 04:11:30;;;;;;;6.23;2.00;;;2.10;99.90;;;;;;6229381;23;20015;-89
2022/01/28 04:13:59;;;;;;;5.17;2.20;;;2.10;99.90;;;;;;6228262;23;20007;-89
2022/01/28 04:17:25;;;;;;;12.53;3.60;;;2.20;99.90;;;;;;6230746;23;20068;-90
2022/01/28 04:19:20;;;;;;;9.73;3.73;;;2.20;99.90;;;;;;6228210;22;20042;-90
2022/01/28 04:21:47;;;;;;;5.17;2.10;;;2.30;99.90;;;;;;6242513;22;20009;-90
2022/01/28 04:24:17;;;;;;;25.67;7.60;;;2.30;99.90;;;;;;6239342;22;20000;-90
2022/01/28 04:26:43;;;;;;;70.73;19.57;;;2.30;99.90;;;;;;6209272;23;20359;-89
2022/01/28 04:29:11;;;;;;;12.17;4.40;;;2.20;99.90;;;;;;6207122;23;20065;-89
2022/01/28 04:31:47;;;;;;;25.40;7.40;;;2.30;99.90;;;;;;6235885;23;20072;-91
2022/01/28 04:34:18;;;;;;;20.70;5.77;;;2.30;99.90;;;;;;6244730;23;20008;-90
2022/01/28 04:39:35;;;;;;;9.03;3.83;;;2.20;99.90;;;;;;6243781;23;20008;-91
2022/01/28 04:44:42;;;;;;;18.43;6.77;;;2.30;99.90;;;;;;6233664;23;20032;-89
2022/01/28 04:48:01;;;;;;;7.67;3.77;;;2.30;99.90;;;;;;6207986;23;20001;-90
2022/01/28 04:50:06;;;;;;;8.67;3.10;;;2.30;99.90;;;;;;6216218;23;20008;-90
2022/01/28 05:00:50;;;;;;;9.97;3.67;;;2.20;99.90;;;;;;6228241;23;20044;-90
2022/01/28 05:03:48;;;;;;;18.57;5.70;;;2.20;99.90;;;;;;6202319;23;20035;-91
2022/01/28 05:27:36;;;;;;;7.93;2.97;;;2.10;99.90;;;;;;6236525;23;20040;-90
2022/01/28 05:30:08;;;;;;;6.20;2.10;;;2.20;99.90;;;;;;6199471;23;20067;-92
2022/01/28 05:32:36;;;;;;;13.65;3.20;;;2.10;99.90;;;;;;6200798;23;20058;-91
2022/01/28 05:35:26;;;;;;;18.97;4.53;;;2.00;99.90;;;;;;6203401;23;20075;-90
2022/01/28 05:38:12;;;;;;;26.13;6.67;;;2.00;99.90;;;;;;6203152;23;20034;-89
2022/01/28 05:41:33;;;;;;;14.10;4.33;;;2.00;99.90;;;;;;6203272;23;20026;-91
2022/01/28 05:44:04;;;;;;;24.33;7.20;;;2.00;99.90;;;;;;6229062;23;20051;-90
2022/01/28 05:46:30;;;;;;;13.17;4.37;;;1.90;99.90;;;;;;6204996;23;20055;-91
2022/01/28 05:48:59;;;;;;;18.50;4.47;;;1.90;99.90;;;;;;6200988;23;20009;-91
2022/01/28 05:51:25;;;;;;;14.07;5.33;;;1.80;99.90;;;;;;6199133;23;20497;-91
2022/01/28 05:54:16;;;;;;;15.43;5.50;;;1.90;99.90;;;;;;6199117;23;20000;-90
2022/01/28 05:56:45;;;;;;;9.00;3.10;;;1.90;99.90;;;;;;6199196;23;20009;-91
2022/01/28 05:59:20;;;;;;;9.03;2.53;;;1.90;99.90;;;;;;6224264;23;20027;-91
2022/01/28 06:01:52;;;;;;;6.57;2.53;;;1.80;99.90;;;;;;6197552;23;20004;-90
2022/01/28 06:04:25;;;;;;;9.00;3.47;;;1.80;99.90;;;;;;6198053;23;20024;-91
2022/01/28 06:17:01;;;;;;;6.47;2.73;;;1.70;99.90;;;;;;6221624;23;20111;-88
2022/01/28 06:19:44;;;;;;;6.87;2.40;;;1.70;99.90;;;;;;6190309;23;20015;-88
2022/01/28 06:22:10;;;;;;;6.80;2.63;;;1.60;99.90;;;;;;6190750;23;20004;-88
2022/01/28 06:24:36;;;;;;;6.90;3.07;;;1.60;99.90;;;;;;6220065;23;20015;-88
2022/01/28 06:27:02;;;;;;;6.10;2.00;;;1.60;99.90;;;;;;6189562;23;20441;-88
2022/01/28 06:29:28;;;;;;;5.37;2.50;;;1.60;99.90;;;;;;6190967;23;20009;-89
2022/01/28 06:31:57;;;;;;;5.43;2.30;;;1.50;99.90;;;;;;6220560;23;20012;-88
2022/01/28 06:34:38;;;;;;;6.13;2.00;;;1.50;99.90;;;;;;6194586;23;20099;-89
2022/01/28 06:37:10;;;;;;;5.37;2.20;;;1.50;99.90;;;;;;6222014;23;20482;-89
2022/01/28 06:39:38;;;;;;;7.27;2.10;;;1.50;99.90;;;;;;6222060;23;20012;-89
2022/01/28 06:42:09;;;;;;;7.10;2.30;;;1.50;99.90;;;;;;6197586;23;20005;-88
2022/01/28 06:44:35;;;;;;;25.83;7.10;;;1.60;99.90;;;;;;6196492;23;20016;-88
2022/01/28 06:47:36;;;;;;;;;;;;;;;;;;;;;
2022/01/28 06:49:56;;;;;;;12.13;3.97;;;1.60;99.90;;;;;;6222906;23;20235;-89
2022/01/28 06:52:24;;;;;;;14.27;5.17;;;1.60;99.90;;;;;;6200210;23;20618;-88
2022/01/28 06:54:50;;;;;;;13.33;4.77;;;1.60;99.90;;;;;;6199748;23;20008;-89
2022/01/28 06:57:16;;;;;;;17.87;5.10;;;1.60;99.90;;;;;;6227485;23;20031;-88
2022/01/28 07:00:05;;;;;;;13.03;4.13;;;1.60;99.90;;;;;;6227920;23;20000;-88
2022/01/28 07:02:38;;;;;;;13.93;4.53;;;1.60;99.90;;;;;;6204653;23;20000;-89
2022/01/28 07:05:20;;;;;;;13.87;3.80;;;1.70;99.90;;;;;;6238410;23;19997;-88
2022/01/28 07:07:47;;;;;;;11.18;3.20;;;1.70;99.90;;;;;;6230196;23;20360;-89
2022/01/28 07:10:18;;;;;;;9.33;3.30;;;1.70;99.90;;;;;;6201552;23;20008;-88
2022/01/28 07:12:54;;;;;;;9.93;3.87;;;1.60;99.90;;;;;;6222277;23;20035;-88
2022/01/28 07:15:24;;;;;;;11.20;3.90;;;1.60;99.90;;;;;;6195290;23;20001;-89
2022/01/28 07:18:01;;;;;;;7.37;2.90;;;1.60;99.90;;;;;;6194463;23;20007;-87
2022/01/28 07:20:40;;;;;;;7.73;3.07;;;1.60;99.90;;;;;;6220271;23;19997;-88
2022/01/28 07:23:09;;;;;;;9.63;3.97;;;1.60;99.90;;;;;;6195400;23;20004;-88
2022/01/28 07:25:38;;;;;;;11.17;4.33;;;1.50;99.90;;;;;;6194968;23;20009;-88
2022/01/28 07:28:11;;;;;;;9.07;3.67;;;1.60;99.90;;;;;;6220031;23;20001;-89
2022/01/28 07:30:44;;;;;;;10.20;3.57;;;1.50;99.90;;;;;;6221281;23;20004;-88
2022/01/28 07:33:10;;;;;;;11.67;3.60;;;1.50;99.90;;;;;;6221860;23;20485;-88
2022/01/28 07:38:22;;;;;;;6.43;2.50;;;1.40;99.90;;;;;;6211336;23;20039;-88
2022/01/28 07:40:49;;;;;;;7.80;3.30;;;1.50;99.90;;;;;;6222688;23;20004;-88
2022/01/28 07:43:14;;;;;;;6.67;2.57;;;1.40;99.90;;;;;;6221679;23;20094;-89
2022/01/28 07:45:40;;;;;;;12.40;4.47;;;1.50;99.90;;;;;;6223305;23;20035;-89
2022/01/28 07:48:12;;;;;;;14.20;4.37;;;1.60;99.90;;;;;;6199677;23;20001;-88
2022/01/28 07:50:44;;;;;;;7.65;2.72;;;1.60;99.90;;;;;;6198489;23;20004;-89
2022/01/28 07:53:36;;;;;;;10.97;3.80;;;1.70;99.90;;;;;;6224328;23;20001;-89
2022/01/28 07:56:14;;;;;;;;;;;;;;;;;;;;;
2022/01/28 07:58:42;;;;;;;7.17;2.37;;;1.80;99.90;;;;;;6225461;23;20028;-87
2022/01/28 08:01:14;;;;;;;5.90;2.30;;;1.90;99.90;;;;;;6224610;23;20419;-88
2022/01/28 08:03:40;;;;;;;7.15;2.70;;;1.90;99.90;;;;;;6222253;23;20084;-88
2022/01/28 08:06:10;;;;;;;8.00;3.00;;;1.90;99.90;;;;;;6198094;23;20404;-88
2022/01/28 08:08:52;;;;;;;15.87;6.60;;;1.90;99.90;;;;;;6222069;23;20001;-88
2022/01/28 08:11:18;;;;;;;8.33;3.03;;;2.00;99.90;;;;;;6220318;22;20024;-86
2022/01/28 08:13:45;;;;;;;10.70;3.27;;;2.00;99.90;;;;;;6244165;23;20065;-86
2022/01/28 08:16:12;;;;;;;8.60;2.20;;;1.90;99.90;;;;;;6245419;23;19996;-86
2022/01/28 08:18:38;;;;;;;8.37;3.23;;;2.10;99.90;;;;;;6243913;23;20016;-86
2022/01/28 08:21:04;;;;;;;9.63;3.23;;;2.10;99.90;;;;;;6245593;22;20399;-87
2022/01/28 08:23:32;;;;;;;9.77;3.20;;;2.20;99.90;;;;;;6219165;23;20008;-86
2022/01/28 08:26:00;;;;;;;15.00;5.87;;;2.20;99.90;;;;;;6219727;23;20004;-86
2022/01/28 08:28:27;;;;;;;11.00;4.07;;;2.20;99.90;;;;;;6219560;23;20469;-86
2022/01/28 08:30:55;;;;;;;10.63;3.50;;;2.20;99.90;;;;;;6219092;23;20098;-87
2022/01/28 08:33:21;;;;;;;13.43;4.00;;;2.20;99.90;;;;;;6219213;23;20008;-87
2022/01/28 08:35:55;;;;;;;9.60;3.73;;;2.30;99.90;;;;;;6247217;23;20007;-87
2022/01/28 08:38:26;;;;;;;8.53;3.60;;;2.40;99.90;;;;;;6219000;23;20000;-88
2022/01/28 08:41:03;;;;;;;12.18;3.55;;;2.40;99.90;;;;;;6219750;23;20508;-87
2022/01/28 08:43:29;;;;;;;11.10;3.43;;;2.50;99.90;;;;;;6246120;23;20008;-87
2022/01/28 08:45:56;;;;;;;7.73;2.97;;;2.50;99.90;;;;;;6219917;23;20012;-87
2022/01/28 08:48:26;;;;;;;9.03;3.37;;;2.50;99.90;;;;;;6194758;23;20316;-88
2022/01/28 08:50:57;;;;;;;11.80;4.53;;;2.60;99.90;;;;;;6219162;23;20004;-88
2022/01/28 08:53:25;;;;;;;8.00;2.77;;;2.70;99.90;;;;;;6244764;23;20008;-89
2022/01/28 08:55:51;;;;;;;8.90;2.80;;;2.70;99.90;;;;;;6218957;23;20046;-88
2022/01/28 08:58:25;;;;;;;7.83;3.13;;;2.70;99.90;;;;;;6245996;23;20000;-90
2022/01/28 09:04:19;;;;;;;7.03;2.27;;;2.80;99.90;;;;;;6153279;23;19997;-89
2022/01/28 09:07:42;;;;;;;;;;;;;;;;;;;;;
2022/01/28 09:13:37;;;;;;;12.00;4.50;;;2.90;99.90;;;;;;6189704;23;20091;-88
2022/01/28 09:16:38;;;;;;;6.20;2.57;;;2.90;99.90;;;;;;6218995;23;20012;-89
2022/01/28 09:29:14;;;;;;;8.73;2.85;;;3.20;99.90;;;;;;6225624;23;20011;-89
2022/01/28 10:20:51;;;;;;;3.70;1.10;;;4.80;99.90;;;;;;6248281;22;20028;-89
2022/01/28 10:23:19;;;;;;;4.90;1.60;;;4.80;99.90;;;;;;6130402;23;20495;-88
2022/01/28 10:25:45;;;;;;;5.80;1.93;;;4.80;99.90;;;;;;6214590;23;20043;-88
2022/01/28 10:28:12;;;;;;;6.67;1.90;;;4.90;99.90;;;;;;6213711;23;20008;-90
2022/01/28 10:30:41;;;;;;;3.23;0.97;;;4.90;99.90;;;;;;6215035;23;20077;-88
2022/01/28 10:33:20;;;;;;;4.63;2.07;;;5.00;99.90;;;;;;6188868;23;20542;-87
2022/01/28 10:35:54;;;;;;;5.17;1.70;;;5.00;99.90;;;;;;6192770;23;20005;-87
2022/01/28 10:38:31;;;;;;;3.50;1.40;;;5.00;99.90;;;;;;6188234;23;20005;-87
2022/01/28 10:41:09;;;;;;;2.60;0.70;;;5.00;99.90;;;;;;6190865;23;19996;-87
2022/01/28 10:43:50;;;;;;;5.03;0.83;;;5.00;99.90;;;;;;6228190;23;20013;-87
2022/01/28 10:46:27;;;;;;;2.80;0.93;;;5.00;99.90;;;;;;6204384;23;20004;-88
2022/01/28 10:48:58;;;;;;;3.87;1.00;;;5.00;99.90;;;;;;6229299;23;20258;-88
2022/01/28 10:51:42;;;;;;;2.37;0.60;;;5.00;99.90;;;;;;6203040;23;20005;-89
2022/01/28 10:54:11;;;;;;;1.60;0.50;;;5.10;99.90;;;;;;6197696;23;20073;-88
2022/01/28 10:56:58;;;;;;;4.37;0.90;;;5.20;99.90;;;;;;6203398;23;20009;-89
2022/01/28 11:03:08;;;;;;;1.53;0.50;;;5.40;99.90;;;;;;6214505;23;20044;-88
2022/01/28 11:05:58;;;;;;;;;;;;;;;;;;;;;
2022/01/28 11:08:30;;;;;;;1.90;0.30;;;5.40;99.90;;;;;;6219733;23;20027;-88
2022/01/28 11:11:02;;;;;;;6.27;0.70;;;5.40;99.90;;;;;;6218758;23;20592;-87
2022/01/28 11:13:50;;;;;;;3.65;0.82;;;5.50;99.90;;;;;;6209192;23;20013;-89
2022/01/28 11:16:26;;;;;;;3.30;0.47;;;5.50;99.90;;;;;;6240895;22;20003;-90
2022/01/28 11:19:45;;;;;;;4.60;0.97;;;5.50;99.90;;;;;;6236676;22;20004;-89
2022/01/28 11:22:48;;;;;;;2.17;0.53;;;5.50;99.90;;;;;;6241863;23;20039;-88
2022/01/28 11:25:52;;;;;;;2.10;0.70;;;5.50;99.90;;;;;;6242925;22;20012;-91
2022/01/28 11:29:07;;;;;;;;;;;;;;;;;;;;;
2022/01/28 11:31:45;;;;;;;8.67;1.93;;;5.30;99.90;;;;;;6214366;23;20103;-88
2022/01/28 11:34:32;;;;;;;9.33;1.87;;;5.30;99.90;;;;;;6192364;23;20005;-88
2022/01/28 11:40:24;;;;;;;16.85;2.13;;;5.40;99.90;;;;;;6217841;23;20533;-89
2022/01/28 11:46:58;;;;;;;13.67;3.77;;;5.60;99.90;;;;;;6155150;23;20470;-89
2022/01/28 11:52:58;;;;;;;11.33;3.23;;;5.50;99.90;;;;;;6231516;22;20053;-87
2022/01/28 11:56:16;;;;;;;10.10;2.50;;;5.50;99.90;;;;;;6211363;23;20335;-88
2022/01/28 12:06:53;;;;;;;15.87;4.27;;;5.20;99.90;;;;;;6007995;23;20548;-88
2022/01/28 12:10:06;;;;;;;8.25;1.75;;;5.20;99.90;;;;;;5998724;23;20461;-87
2022/01/28 12:13:16;;;;;;;6.30;1.27;;;5.30;99.90;;;;;;6191237;22;20071;-87
2022/01/28 12:16:18;;;;;;;2.60;0.85;;;5.20;99.90;;;;;;6215390;23;20079;-88
2022/01/28 12:26:39;;;;;;;;;;;;;;;;;;;;;
2022/01/28 12:29:52;;;;;;;6.43;2.00;;;5.00;99.90;;;;;;6120729;23;20006;-88
2022/01/28 12:40:34;;;;;;;;;;;;;;;;;;;;;
2022/01/28 12:56:35;;;;;;;5.80;1.63;;;5.80;99.90;;;;;;6182244;23;20043;-88
2022/01/28 12:59:04;;;;;;;8.77;1.23;;;5.60;99.90;;;;;;6214007;23;20000;-88
2022/01/28 13:01:30;;;;;;;32.23;8.13;;;5.50;99.90;;;;;;6213355;23;20083;-88
2022/01/28 13:04:15;;;;;;;12.47;4.20;;;5.40;99.90;;;;;;6192653;23;20004;-88
2022/01/28 13:06:59;;;;;;;12.97;4.27;;;5.50;99.90;;;;;;6193141;23;20032;-88
2022/01/28 13:09:32;;;;;;;14.17;4.03;;;5.40;99.90;;;;;;6189580;23;20104;-87
2022/01/28 13:12:04;;;;;;;6.30;2.30;;;5.40;99.90;;;;;;6189672;23;20084;-88
2022/01/28 13:14:34;;;;;;;9.27;2.43;;;5.40;99.90;;;;;;6216242;23;20011;-88
2022/01/28 13:17:28;;;;;;;10.33;3.33;;;5.40;99.90;;;;;;6189436;23;20050;-88
2022/01/28 13:20:04;;;;;;;10.37;3.20;;;5.30;99.90;;;;;;6189572;23;20119;-89
2022/01/28 13:22:40;;;;;;;9.47;2.37;;;5.20;99.90;;;;;;6188394;23;20088;-89
2022/01/28 13:25:44;;;;;;;7.37;2.20;;;5.20;99.90;;;;;;6188570;23;20012;-89
2022/01/28 13:28:40;;;;;;;7.57;1.87;;;5.00;99.90;;;;;;6188403;23;20008;-90
2022/01/28 13:31:23;;;;;;;17.17;5.33;;;5.00;99.90;;;;;;6188316;23;20016;-89
2022/01/28 13:34:05;;;;;;;22.13;6.60;;;5.00;99.90;;;;;;6188982;23;20001;-90
2022/01/28 13:37:07;;;;;;;10.82;4.05;;;5.10;99.90;;;;;;6187900;23;20012;-89
2022/01/28 13:39:59;;;;;;;23.00;7.43;;;5.10;99.90;;;;;;6190615;23;20004;-89
2022/01/28 13:42:52;;;;;;;8.40;3.50;;;5.00;99.90;;;;;;6190635;23;20028;-88
2022/01/28 13:45:40;;;;;;;20.50;6.37;;;5.00;99.90;;;;;;6193080;23;20501;-88
2022/01/28 13:48:31;;;;;;;11.10;4.23;;;4.90;99.90;;;;;;6219931;23;20007;-88
2022/01/28 13:51:28;;;;;;;6.20;2.60;;;4.80;99.90;;;;;;6191294;23;20084;-89
2022/01/28 14:13:30;;;;;;;3.77;1.57;;;4.90;99.90;;;;;;6212758;23;20024;-90
2022/01/28 14:16:04;;;;;;;6.13;2.07;;;4.90;99.90;;;;;;6238437;23;20001;-90
2022/01/28 14:18:44;;;;;;;7.70;2.23;;;4.80;99.90;;;;;;6237034;23;20079;-89
2022/01/28 14:21:13;;;;;;;7.23;1.93;;;4.80;99.90;;;;;;6212424;23;20032;-89
2022/01/28 14:23:45;;;;;;;6.03;1.73;;;4.70;99.90;;;;;;6212869;23;20075;-89
2022/01/28 14:26:11;;;;;;;6.72;2.45;;;4.60;99.90;;;;;;6236652;23;20020;-88
2022/01/28 14:28:50;;;;;;;4.13;1.30;;;4.50;99.90;;;;;;6235643;23;20005;-89
2022/01/28 14:31:16;;;;;;;6.27;2.17;;;4.50;99.90;;;;;;6236344;23;20008;-88
2022/01/28 14:33:44;;;;;;;7.63;2.63;;;4.70;99.90;;;;;;6209322;23;20088;-89
2022/01/28 14:36:11;;;;;;;8.97;2.83;;;4.80;99.90;;;;;;6208186;23;20000;-88
2022/01/28 14:38:36;;;;;;;6.33;2.47;;;4.90;99.90;;;;;;6238740;23;20027;-89
2022/01/28 14:41:02;;;;;;;7.50;2.07;;;4.70;99.90;;;;;;6215850;23;20447;-90
2022/01/28 14:43:27;;;;;;;8.60;2.60;;;4.80;99.90;;;;;;6238974;23;20004;-89
2022/01/28 14:45:53;;;;;;;9.40;2.07;;;4.90;99.90;;;;;;6214488;23;20008;-89
2022/01/28 14:48:21;;;;;;;11.60;4.23;;;4.90;99.90;;;;;;6213410;23;20401;-89
2022/01/28 14:50:48;;;;;;;5.70;1.80;;;5.00;99.90;;;;;;6211979;23;20054;-89
2022/01/28 14:53:13;;;;;;;5.83;2.50;;;4.90;99.90;;;;;;6214446;23;20447;-88
2022/01/28 14:55:41;;;;;;;10.47;2.60;;;4.90;99.90;;;;;;6213801;23;20055;-90
2022/01/28 14:58:07;;;;;;;7.60;2.20;;;5.00;99.90;;;;;;6214846;23;20511;-90
2022/01/28 15:00:32;;;;;;;4.03;1.50;;;5.00;99.90;;;;;;6213653;23;20035;-89
2022/01/28 15:02:59;;;;;;;4.47;1.43;;;5.00;99.90;;;;;;6210881;23;20047;-89
2022/01/28 15:05:28;;;;;;;5.90;2.20;;;4.90;99.90;;;;;;6213170;23;20004;-89
2022/01/28 15:07:53;;;;;;;4.07;1.70;;;5.00;99.90;;;;;;6239095;23;20008;-89
2022/01/28 15:10:26;;;;;;;15.63;6.00;;;5.20;99.90;;;;;;6238204;23;20009;-89
2022/01/28 15:12:52;;;;;;;10.07;3.73;;;5.30;99.90;;;;;;6214294;23;20012;-89
2022/01/28 15:15:18;;;;;;;9.50;3.87;;;5.20;99.90;;;;;;6215021;23;20000;-89
2022/01/28 15:17:44;;;;;;;10.57;4.27;;;5.10;99.90;;;;;;6185012;23;20447;-90
2022/01/28 15:20:10;;;;;;;5.07;1.93;;;5.30;99.90;;;;;;6187820;23;20028;-90
2022/01/28 15:22:36;;;;;;;7.63;1.77;;;5.40;99.90;;;;;;6188065;23;20367;-89
2022/01/28 15:25:04;;;;;;;10.37;2.93;;;5.50;99.90;;;;;;6189009;23;20083;-89
2022/01/28 15:27:31;;;;;;;4.87;1.73;;;5.40;99.90;;;;;;6188608;23;20005;-88
2022/01/28 15:30:05;;;;;;;5.40;1.83;;;5.40;99.90;;;;;;6187635;23;20731;-90
2022/01/28 15:35:41;;;;;;;8.03;2.80;;;5.10;99.90;;;;;;6215070;23;20011;-90
2022/01/28 15:38:02;;;;;;;4.87;1.80;;;5.00;99.90;;;;;;6215253;23;20015;-89
2022/01/28 15:40:28;;;;;;;9.33;1.77;;;4.70;99.90;;;;;;6187697;23;19997;-90
2022/01/28 15:43:00;;;;;;;6.43;1.70;;;4.60;99.90;;;;;;6187815;23;20015;-90
2022/01/28 15:45:31;;;;;;;7.53;2.75;;;4.50;99.90;;;;;;6214542;23;20444;-90
2022/01/28 15:47:58;;;;;;;4.07;1.60;;;4.30;99.90;;;;;;6187073;23;20012;-88
2022/01/28 15:50:24;;;;;;;6.47;2.30;;;4.30;99.90;;;;;;6188693;23;20011;-89
2022/01/28 15:52:50;;;;;;;6.10;2.37;;;4.20;99.90;;;;;;6214590;23;20009;-89
2022/01/28 15:55:15;;;;;;;4.33;1.57;;;4.10;99.90;;;;;;6187993;23;20436;-88
2022/01/28 15:57:42;;;;;;;3.80;1.50;;;4.00;99.90;;;;;;6186828;23;20080;-89
2022/01/28 16:00:10;;;;;;;4.57;1.57;;;4.00;99.90;;;;;;6187493;23;20367;-88
2022/01/28 16:02:36;;;;;;;5.13;1.80;;;4.00;99.90;;;;;;6210860;23;20080;-90
2022/01/28 16:05:02;;;;;;;4.40;1.60;;;3.90;99.90;;;;;;6187345;23;20036;-90
2022/01/28 16:07:30;;;;;;;6.67;2.30;;;3.90;99.90;;;;;;6214452;23;20005;-90
2022/01/28 16:10:04;;;;;;;6.30;2.10;;;3.90;99.90;;;;;;6188230;23;20004;-89
2022/01/28 16:17:45;;;;;;;6.13;1.80;;;3.70;99.90;;;;;;6213524;23;20012;-88
2022/01/28 16:20:11;;;;;;;5.17;1.77;;;3.70;99.90;;;;;;6184718;23;20435;-90
2022/01/28 16:22:37;;;;;;;7.37;2.13;;;3.70;99.90;;;;;;6215549;23;20011;-90
2022/01/28 16:25:03;;;;;;;6.67;2.13;;;3.70;99.90;;;;;;6188384;23;20012;-92
2022/01/28 16:27:32;;;;;;;6.50;1.80;;;3.60;99.90;;;;;;6214384;23;20005;-91
2022/01/28 16:29:58;;;;;;;5.53;1.80;;;3.60;99.90;;;;;;6187033;23;20642;-90
2022/01/28 16:32:23;;;;;;;5.13;1.67;;;3.60;99.90;;;;;;6214950;23;20012;-91
2022/01/28 16:34:50;;;;;;;5.17;1.97;;;3.60;99.90;;;;;;6215484;23;20008;-92
2022/01/28 16:37:19;;;;;;;5.37;1.60;;;3.60;99.90;;;;;;6214037;23;20001;-89
2022/01/28 16:39:48;;;;;;;5.73;1.87;;;3.50;99.90;;;;;;6213544;23;20070;-89
2022/01/28 16:42:36;;;;;;;10.10;2.33;;;3.50;99.90;;;;;;6183135;23;20013;-90
2022/01/28 16:45:06;;;;;;;9.47;3.13;;;3.50;99.90;;;;;;6213403;23;20008;-88
2022/01/28 16:47:33;;;;;;;8.17;2.23;;;3.50;99.90;;;;;;6212424;23;20004;-89
2022/01/28 16:50:00;;;;;;;8.97;3.23;;;3.50;99.90;;;;;;6211344;23;20015;-90
2022/01/28 16:52:26;;;;;;;9.77;3.83;;;3.40;99.90;;;;;;6213099;23;20028;-90
2022/01/28 16:54:51;;;;;;;11.13;3.93;;;3.40;99.90;;;;;;6214135;23;20000;-89
2022/01/28 16:57:18;;;;;;;8.80;3.40;;;3.40;99.90;;;;;;6214136;23;20063;-90
2022/01/28 16:59:49;;;;;;;13.90;3.90;;;3.40;99.90;;;;;;6213684;23;20004;-90
2022/01/28 17:02:24;;;;;;;4.53;1.75;;;3.40;99.90;;;;;;6215789;23;20427;-91
2022/01/28 17:04:50;;;;;;;10.30;3.60;;;3.40;99.90;;;;;;6190096;23;20012;-91
2022/01/28 17:07:16;;;;;;;10.30;2.70;;;3.40;99.90;;;;;;6217909;23;20371;-90
2022/01/28 17:09:50;;;;;;;11.87;3.50;;;3.50;99.90;;;;;;6191541;23;20352;-91
2022/01/28 17:14:51;;;;;;;8.50;3.33;;;3.50;99.90;;;;;;6230130;23;20004;-90
2022/01/28 17:17:23;;;;;;;10.70;3.63;;;3.50;99.90;;;;;;6218908;23;20003;-90
2022/01/28 17:19:49;;;;;;;11.87;3.57;;;3.40;99.90;;;;;;6215797;23;20331;-90
2022/01/28 17:22:17;;;;;;;8.23;2.47;;;3.40;99.90;;;;;;6188208;23;20005;-89
2022/01/28 17:24:44;;;;;;;7.93;2.60;;;3.40;99.90;;;;;;6189042;23;20446;-91
2022/01/28 17:27:17;;;;;;;5.53;2.13;;;3.40;99.90;;;;;;6188826;23;20009;-90
2022/01/28 17:29:47;;;;;;;6.60;2.17;;;3.40;99.90;;;;;;6217506;23;20004;-91